createdAt,value
2023-02-18T00:00:18.466Z,9.20
2023-02-18T00:03:06.990Z,9.20
2023-02-18T00:05:56.908Z,9.10
2023-02-18T00:08:46.777Z,9.10
2023-02-18T00:11:36.820Z,9.10
2023-02-18T00:14:25.465Z,9.10
2023-02-18T00:17:14.056Z,9.00
2023-02-18T00:20:02.633Z,9.10
2023-02-18T00:22:52.554Z,9.10
2023-02-18T00:25:41.049Z,9.10
2023-02-18T00:28:30.283Z,9.10
2023-02-18T00:31:21.530Z,9.10
2023-02-18T00:34:11.618Z,9.20
2023-02-18T00:37:00.457Z,9.20
2023-02-18T00:39:50.538Z,9.20
2023-02-18T00:42:39.117Z,9.20
2023-02-18T00:45:27.640Z,9.10
2023-02-18T00:48:16.190Z,9.00
2023-02-18T00:51:06.366Z,9.00
2023-02-18T00:53:54.975Z,9.00
2023-02-18T00:56:44.921Z,9.00
2023-02-18T00:59:33.546Z,8.90
2023-02-18T01:02:22.100Z,8.90
2023-02-18T01:05:10.785Z,8.90
2023-02-18T01:07:59.373Z,8.80
2023-02-18T01:10:50.252Z,8.80
2023-02-18T01:13:41.086Z,8.80
2023-02-18T01:16:29.715Z,8.80
2023-02-18T01:19:18.309Z,8.80
2023-02-18T01:22:07.225Z,8.70
2023-02-18T01:24:55.732Z,8.70
2023-02-18T01:27:44.280Z,8.70
2023-02-18T01:30:34.272Z,8.70
2023-02-18T01:33:23.413Z,8.60
2023-02-18T01:36:12.618Z,8.60
2023-02-18T01:39:01.169Z,8.60
2023-02-18T01:41:49.831Z,8.70
2023-02-18T01:44:38.380Z,8.60
2023-02-18T01:47:28.346Z,8.60
2023-02-18T01:50:17.021Z,8.60
2023-02-18T01:53:05.973Z,8.50
2023-02-18T01:55:54.593Z,8.50
2023-02-18T01:58:43.754Z,8.50
2023-02-18T02:01:33.745Z,8.50
2023-02-18T02:04:23.882Z,8.50
2023-02-18T02:07:12.493Z,8.40
2023-02-18T02:10:01.819Z,8.50
2023-02-18T02:12:59.908Z,8.40
2023-02-18T02:15:53.898Z,8.50
2023-02-18T02:18:51.318Z,8.40
2023-02-18T02:22:11.680Z,8.40
2023-02-18T02:25:16.342Z,8.40
2023-02-18T02:28:31.765Z,8.40
2023-02-18T02:31:44.501Z,8.40
2023-02-18T02:34:58.505Z,8.40
2023-02-18T02:37:55.440Z,8.40
2023-02-18T02:40:50.172Z,8.40
2023-02-18T02:43:52.728Z,8.40
2023-02-18T02:46:45.940Z,8.40
2023-02-18T02:49:42.704Z,8.40
2023-02-18T02:52:35.815Z,8.40
2023-02-18T02:55:24.684Z,8.30
2023-02-18T02:58:17.090Z,8.40
2023-02-18T03:01:23.253Z,8.40
2023-02-18T03:04:33.186Z,8.30
2023-02-18T03:07:37.466Z,8.40
2023-02-18T03:10:45.092Z,8.40
2023-02-18T03:13:52.621Z,8.40
2023-02-18T03:16:48.328Z,8.40
2023-02-18T03:19:39.822Z,8.30
2023-02-18T03:22:35.358Z,8.30
2023-02-18T03:25:25.481Z,8.40
2023-02-18T03:28:18.519Z,8.30
2023-02-18T03:31:10.902Z,8.30
2023-02-18T03:34:04.448Z,8.30
2023-02-18T03:36:53.688Z,8.40
2023-02-18T03:39:48.240Z,8.30
2023-02-18T03:42:36.785Z,8.30
2023-02-18T03:45:25.398Z,8.30
2023-02-18T03:48:13.988Z,8.30
2023-02-18T03:51:02.517Z,8.30
2023-02-18T03:53:51.052Z,8.30
2023-02-18T03:56:41.336Z,8.30
2023-02-18T03:59:29.890Z,8.30
2023-02-18T04:02:18.383Z,8.30
2023-02-18T04:05:07.814Z,8.30
2023-02-18T04:07:56.320Z,8.30
2023-02-18T04:10:44.908Z,8.30
2023-02-18T04:13:34.864Z,8.30
2023-02-18T04:16:23.421Z,8.30
2023-02-18T04:19:12.126Z,8.30
2023-02-18T04:22:00.666Z,8.30
2023-02-18T04:24:49.187Z,8.30
2023-02-18T04:27:37.795Z,8.30
2023-02-18T04:30:28.764Z,8.30
2023-02-18T04:33:17.460Z,8.30
2023-02-18T04:36:06.932Z,8.30
2023-02-18T04:38:55.684Z,8.30
2023-02-18T04:41:44.238Z,8.40
2023-02-18T04:44:32.760Z,8.30
2023-02-18T04:47:22.772Z,8.40
2023-02-18T04:50:12.160Z,8.40
2023-02-18T04:53:00.686Z,8.40
2023-02-18T04:55:51.987Z,8.30
2023-02-18T04:58:40.545Z,8.40
2023-02-18T05:01:29.155Z,8.30
2023-02-18T05:04:19.136Z,8.40
2023-02-18T05:07:07.696Z,8.30
2023-02-18T05:09:56.250Z,8.30
2023-02-18T05:12:45.104Z,8.40
2023-02-18T05:15:33.761Z,8.30
2023-02-18T05:18:22.326Z,8.30
2023-02-18T05:21:12.622Z,8.40
2023-02-18T05:24:01.147Z,8.30
2023-02-18T05:26:49.701Z,8.30
2023-02-18T05:29:38.214Z,8.40
2023-02-18T05:32:26.818Z,8.30
2023-02-18T05:35:15.390Z,8.30
2023-02-18T05:38:05.458Z,8.30
2023-02-18T05:40:54.019Z,8.30
2023-02-18T05:43:56.371Z,8.30
2023-02-18T05:46:44.914Z,8.30
2023-02-18T05:49:35.036Z,8.30
2023-02-18T05:52:23.680Z,8.30
2023-02-18T05:55:13.872Z,8.20
2023-02-18T05:58:02.377Z,8.30
2023-02-18T06:00:50.933Z,8.30
2023-02-18T06:03:39.449Z,8.20
2023-02-18T06:06:28.071Z,8.20
2023-02-18T06:09:16.826Z,8.20
2023-02-18T06:12:07.184Z,8.20
2023-02-18T06:14:55.789Z,8.20
2023-02-18T06:17:44.351Z,8.20
2023-02-18T06:20:32.904Z,8.20
2023-02-18T06:23:21.514Z,8.20
2023-02-18T06:26:10.669Z,8.20
2023-02-18T06:29:00.653Z,8.20
2023-02-18T06:31:49.389Z,8.20
2023-02-18T06:34:37.992Z,8.20
2023-02-18T06:37:26.579Z,8.20
2023-02-18T06:40:15.356Z,8.20
2023-02-18T06:43:03.915Z,8.20
2023-02-18T06:45:53.988Z,8.20
2023-02-18T06:48:42.760Z,8.20
2023-02-18T06:51:31.473Z,8.10
2023-02-18T06:54:20.083Z,8.10
2023-02-18T06:57:08.643Z,8.10
2023-02-18T06:59:57.175Z,8.10
2023-02-18T07:02:47.267Z,8.10
2023-02-18T07:05:35.914Z,8.10
2023-02-18T07:08:24.477Z,8.10
2023-02-18T07:11:13.078Z,8.10
2023-02-18T07:14:01.762Z,8.10
2023-02-18T07:16:50.360Z,8.10
2023-02-18T07:19:40.504Z,8.10
2023-02-18T07:22:29.098Z,8.10
2023-02-18T07:25:17.949Z,8.10
2023-02-18T07:28:06.942Z,8.10
2023-02-18T07:30:55.472Z,8.10
2023-02-18T07:33:43.997Z,8.10
2023-02-18T07:36:33.900Z,8.10
2023-02-18T07:39:22.719Z,8.10
2023-02-18T07:42:11.766Z,8.10
2023-02-18T07:45:00.299Z,8.20
2023-02-18T07:47:48.847Z,8.20
2023-02-18T07:50:39.976Z,8.20
2023-02-18T07:53:29.892Z,8.20
2023-02-18T07:56:18.788Z,8.20
2023-02-18T07:59:07.867Z,8.20
2023-02-18T08:01:56.915Z,8.10
2023-02-18T08:04:45.483Z,8.10
2023-02-18T08:07:34.391Z,8.20
2023-02-18T08:10:24.333Z,8.20
2023-02-18T08:13:12.960Z,8.20
2023-02-18T08:16:01.483Z,8.20
2023-02-18T08:18:50.627Z,8.20
2023-02-18T08:21:39.163Z,8.20
2023-02-18T08:24:27.780Z,8.20
2023-02-18T08:27:17.691Z,8.20
2023-02-18T08:30:07.450Z,8.10
2023-02-18T08:32:56.034Z,8.20
2023-02-18T08:35:44.810Z,8.20
2023-02-18T08:38:33.350Z,8.20
2023-02-18T08:41:21.966Z,8.20
2023-02-18T08:44:11.926Z,8.20
2023-02-18T08:47:00.410Z,8.30
2023-02-18T08:49:48.986Z,8.30
2023-02-18T08:52:37.764Z,8.30
2023-02-18T08:55:26.976Z,8.30
2023-02-18T08:58:15.580Z,8.30
2023-02-18T09:01:07.392Z,8.40
2023-02-18T09:03:56.208Z,8.40
2023-02-18T09:06:46.895Z,8.30
2023-02-18T09:09:35.572Z,8.30
2023-02-18T09:12:24.114Z,8.30
2023-02-18T09:15:12.695Z,8.30
2023-02-18T09:18:02.666Z,8.30
2023-02-18T09:20:51.228Z,8.30
2023-02-18T09:23:40.605Z,8.30
2023-02-18T09:26:29.632Z,8.40
2023-02-18T09:29:19.942Z,8.30
2023-02-18T09:32:09.769Z,8.30
2023-02-18T09:34:59.727Z,8.30
2023-02-18T09:37:48.233Z,8.40
2023-02-18T09:40:41.107Z,8.40
2023-02-18T09:43:34.728Z,8.40
2023-02-18T09:46:27.528Z,8.50
2023-02-18T09:49:19.858Z,8.50
2023-02-18T09:52:15.291Z,8.50
2023-02-18T09:55:16.509Z,8.50
2023-02-18T09:58:08.581Z,8.50
2023-02-18T10:01:04.906Z,8.50
2023-02-18T10:03:55.694Z,8.50
2023-02-18T10:06:46.222Z,8.50
2023-02-18T10:09:39.628Z,8.50
2023-02-18T10:12:35.051Z,8.50
2023-02-18T10:15:27.404Z,8.50
2023-02-18T10:18:35.094Z,8.50
2023-02-18T10:21:27.055Z,8.50
2023-02-18T10:24:23.435Z,8.40
2023-02-18T10:27:22.086Z,8.40
2023-02-18T10:30:24.491Z,8.30
2023-02-18T10:33:28.235Z,8.40
2023-02-18T10:36:25.900Z,8.40
2023-02-18T10:39:39.414Z,8.40
2023-02-18T10:42:39.890Z,8.40
2023-02-18T10:54:08.155Z,8.50
2023-02-18T10:57:01.142Z,8.50
2023-02-18T11:00:00.304Z,8.50
2023-02-18T11:03:01.980Z,8.50
2023-02-18T11:05:53.259Z,8.50
2023-02-18T11:08:46.741Z,8.50
2023-02-18T11:11:38.947Z,8.50
2023-02-18T11:14:39.145Z,8.50
2023-02-18T11:17:32.906Z,8.50
2023-02-18T11:20:32.055Z,8.50
2023-02-18T11:23:22.779Z,8.50
2023-02-18T11:26:16.656Z,8.40
2023-02-18T11:29:08.931Z,8.40
2023-02-18T11:31:58.990Z,8.50
2023-02-18T11:34:51.347Z,8.40
2023-02-18T11:37:40.073Z,8.40
2023-02-18T11:40:33.831Z,8.30
2023-02-18T11:43:22.537Z,8.30
2023-02-18T11:46:12.750Z,8.30
2023-02-18T11:49:23.040Z,8.40
2023-02-18T11:52:21.678Z,8.30
2023-02-18T11:55:16.968Z,8.40
2023-02-18T11:58:11.660Z,8.40
2023-02-18T12:01:04.883Z,8.50
2023-02-18T12:03:58.939Z,8.50
2023-02-18T12:06:54.625Z,8.50
2023-02-18T12:09:50.833Z,8.60
2023-02-18T12:12:46.370Z,8.60
2023-02-18T12:15:55.499Z,8.60
2023-02-18T12:19:08.734Z,8.70
2023-02-18T12:22:05.243Z,8.80
2023-02-18T12:25:07.796Z,8.80
2023-02-18T12:28:14.983Z,8.80
2023-02-18T12:31:32.742Z,8.80
2023-02-18T12:34:33.919Z,8.70
2023-02-18T12:37:42.745Z,8.70
2023-02-18T12:40:45.465Z,8.50
2023-02-18T12:43:44.827Z,8.40
2023-02-18T12:46:52.743Z,8.30
2023-02-18T12:50:15.378Z,8.30
2023-02-18T12:53:26.301Z,8.30
2023-02-18T12:56:42.325Z,8.30
2023-02-18T13:00:15.560Z,8.30
2023-02-18T13:03:22.294Z,8.30
2023-02-18T13:06:24.464Z,8.20
2023-02-18T13:09:23.305Z,8.10
2023-02-18T13:12:18.623Z,8.10
2023-02-18T13:15:17.358Z,8.10
2023-02-18T13:18:13.289Z,8.10
2023-02-18T13:21:06.090Z,8.10
2023-02-18T13:23:58.565Z,8.10
2023-02-18T13:26:50.285Z,8.10
2023-02-18T13:29:48.408Z,8.10
2023-02-18T13:32:40.508Z,8.20
2023-02-18T13:35:36.029Z,8.20
2023-02-18T13:38:49.929Z,8.20
2023-02-18T13:41:40.542Z,8.20
2023-02-18T13:45:21.813Z,8.20
2023-02-18T13:51:06.683Z,8.20
2023-02-18T13:54:02.413Z,8.10
2023-02-18T13:56:55.649Z,8.10
2023-02-18T13:59:48.894Z,8.10
2023-02-18T14:02:38.286Z,8.10
2023-02-18T14:05:40.175Z,8.10
2023-02-18T14:08:34.907Z,8.10
2023-02-18T14:11:40.598Z,8.10
2023-02-18T14:14:40.041Z,8.10
2023-02-18T14:17:36.698Z,8.10
2023-02-18T14:20:46.978Z,8.00
2023-02-18T14:23:56.184Z,8.10
2023-02-18T14:26:50.093Z,8.00
2023-02-18T14:29:39.110Z,8.10
2023-02-18T14:32:28.038Z,8.10
2023-02-18T14:35:28.858Z,8.00
2023-02-18T14:42:08.388Z,8.00
2023-02-18T14:50:36.770Z,8.00
2023-02-18T14:53:27.479Z,8.00
2023-02-18T14:56:19.861Z,8.00
2023-02-18T14:59:09.220Z,8.00
2023-02-18T15:01:58.485Z,8.00
2023-02-18T15:04:47.586Z,8.00
2023-02-18T15:07:39.345Z,7.90
2023-02-18T15:10:37.881Z,7.90
2023-02-18T15:13:29.810Z,8.00
2023-02-18T15:16:31.865Z,8.00
2023-02-18T15:19:24.220Z,8.00
2023-02-18T15:22:19.076Z,8.00
2023-02-18T15:25:13.945Z,8.00
2023-02-18T15:28:02.718Z,8.00
2023-02-18T15:30:51.274Z,8.00
2023-02-18T15:33:44.615Z,8.00
2023-02-18T15:36:33.725Z,8.00
2023-02-18T15:39:22.366Z,8.00
2023-02-18T15:42:28.495Z,8.00
2023-02-18T15:45:21.004Z,8.10
2023-02-18T15:48:21.146Z,8.10
2023-02-18T15:51:17.622Z,8.10
2023-02-18T15:54:06.642Z,8.10
2023-02-18T15:56:57.001Z,8.10
2023-02-18T15:59:48.620Z,8.10
2023-02-18T16:02:36.121Z,8.10
2023-02-18T16:05:29.270Z,8.10
2023-02-18T16:08:24.462Z,8.10
2023-02-18T16:11:14.994Z,8.10
2023-02-18T16:17:38.117Z,8.10
2023-02-18T16:20:31.451Z,8.20
2023-02-18T16:23:20.081Z,8.10
2023-02-18T16:27:10.278Z,8.10
2023-02-18T16:32:55.328Z,8.10
2023-02-18T16:35:50.041Z,8.10
2023-02-18T16:38:37.272Z,8.00
2023-02-18T16:41:26.542Z,8.10
2023-02-18T16:44:17.559Z,8.00
2023-02-18T16:47:07.002Z,8.00
2023-02-18T16:49:58.888Z,8.00
2023-02-18T16:52:47.878Z,8.00
2023-02-18T16:55:36.514Z,8.00
2023-02-18T16:58:25.460Z,8.00
2023-02-18T17:04:41.472Z,7.90
2023-02-18T17:07:32.921Z,7.90
2023-02-18T17:10:22.120Z,7.90
2023-02-18T17:13:15.105Z,7.90
2023-02-18T17:16:03.966Z,7.90
2023-02-18T17:18:52.742Z,7.90
2023-02-18T17:21:41.451Z,7.90
2023-02-18T17:24:32.321Z,7.90
2023-02-18T17:27:12.457Z,7.80
2023-02-18T17:30:01.419Z,7.90
2023-02-18T17:32:52.591Z,7.90
2023-02-18T17:35:41.291Z,7.90
2023-02-18T17:38:34.582Z,7.90
2023-02-18T17:41:24.555Z,7.90
2023-02-18T17:44:16.833Z,7.90
2023-02-18T17:47:05.619Z,7.90
2023-02-18T17:49:55.740Z,7.90
2023-02-18T17:52:44.762Z,7.90
2023-02-18T17:55:36.534Z,7.90
2023-02-18T18:01:02.335Z,7.80
2023-02-18T18:03:51.895Z,7.90
2023-02-18T18:06:40.937Z,7.80
2023-02-18T18:12:05.877Z,7.90
2023-02-18T18:14:54.755Z,7.80
2023-02-18T18:17:45.057Z,7.80
2023-02-18T18:20:37.953Z,7.80
2023-02-18T18:23:29.893Z,7.80
2023-02-18T18:26:18.785Z,7.80
2023-02-18T18:29:07.627Z,7.70
2023-02-18T18:31:56.696Z,7.70
2023-02-18T18:34:49.108Z,7.70
2023-02-18T18:37:38.078Z,7.70
2023-02-18T18:40:28.275Z,7.60
2023-02-18T18:43:24.582Z,7.60
2023-02-18T18:46:13.867Z,7.60
2023-02-18T18:49:02.821Z,7.50
2023-02-18T18:51:53.330Z,7.50
2023-02-18T18:54:51.981Z,7.50
2023-02-18T18:57:42.077Z,7.60
2023-02-18T19:01:07.903Z,7.50
2023-02-18T19:03:58.575Z,7.60
2023-02-18T19:06:52.207Z,7.60
2023-02-18T19:15:42.978Z,7.60
2023-02-18T19:18:33.785Z,7.60
2023-02-18T19:21:22.580Z,7.60
2023-02-18T19:24:11.389Z,7.60
2023-02-18T19:29:43.562Z,7.70
2023-02-18T19:35:20.026Z,7.70
2023-02-18T19:38:10.197Z,7.70
2023-02-18T19:43:48.758Z,7.70
2023-02-18T19:46:37.984Z,7.70
2023-02-18T19:49:27.927Z,7.70
2023-02-18T19:52:19.166Z,7.70
2023-02-18T19:55:09.208Z,7.70
2023-02-18T20:00:33.389Z,7.70
2023-02-18T20:03:22.772Z,7.70
2023-02-18T20:06:16.785Z,7.70
2023-02-18T20:09:06.963Z,7.70
2023-02-18T20:11:57.598Z,7.70
2023-02-18T20:14:47.051Z,7.70
2023-02-18T20:17:36.002Z,7.80
2023-02-18T20:20:27.034Z,7.80
2023-02-18T20:26:04.351Z,7.70
2023-02-18T20:28:57.106Z,7.80
2023-02-18T20:31:46.041Z,7.80
2023-02-18T20:37:11.423Z,7.80
2023-02-18T20:40:00.348Z,7.80
2023-02-18T20:42:50.836Z,7.80
2023-02-18T20:45:39.647Z,7.80
2023-02-18T20:48:28.336Z,7.80
2023-02-18T20:51:19.652Z,7.80
2023-02-18T20:54:10.285Z,7.80
2023-02-18T20:56:58.824Z,7.80
2023-02-18T20:59:48.748Z,7.80
2023-02-18T21:02:37.295Z,7.80
2023-02-18T21:05:25.821Z,7.80
2023-02-18T21:08:14.342Z,7.80
2023-02-18T21:11:05.800Z,7.90
2023-02-18T21:13:56.278Z,7.90
2023-02-18T21:16:46.170Z,7.90
2023-02-18T21:19:34.647Z,7.90
2023-02-18T21:22:23.216Z,7.90
2023-02-18T21:25:12.997Z,7.90
2023-02-18T21:28:04.726Z,7.90
2023-02-18T21:30:53.341Z,7.90
2023-02-18T21:33:43.702Z,7.90
2023-02-18T21:36:33.703Z,7.90
2023-02-18T21:39:51.173Z,7.90
2023-02-18T21:42:40.083Z,7.90
2023-02-18T21:45:31.284Z,8.00
2023-02-18T21:48:37.143Z,8.00
2023-02-18T21:51:45.171Z,7.90
2023-02-18T21:54:36.195Z,7.90
2023-02-18T21:57:25.037Z,7.90
2023-02-18T22:00:20.438Z,7.90
2023-02-18T22:03:12.903Z,7.90
2023-02-18T22:06:01.763Z,7.90
2023-02-18T22:08:53.063Z,7.90
2023-02-18T22:11:42.408Z,7.90
2023-02-18T22:14:31.741Z,7.90
2023-02-18T22:17:21.718Z,7.90
2023-02-18T22:20:11.603Z,7.90
2023-02-18T22:23:00.631Z,7.90
2023-02-18T22:25:52.434Z,7.90
2023-02-18T22:28:41.174Z,7.90
2023-02-18T22:31:31.723Z,7.90
2023-02-18T22:34:20.598Z,7.90
2023-02-18T22:37:09.676Z,7.90
2023-02-18T22:39:58.627Z,7.90
2023-02-18T22:42:48.785Z,8.00
2023-02-18T22:45:38.061Z,7.90
2023-02-18T22:48:26.606Z,7.90
2023-02-18T22:51:17.135Z,8.00
2023-02-18T22:54:06.942Z,8.00
2023-02-18T22:56:55.742Z,8.00
2023-02-18T22:59:45.622Z,8.00
2023-02-18T23:02:34.142Z,8.00
2023-02-18T23:05:23.342Z,8.00
2023-02-18T23:08:12.061Z,7.90
2023-02-18T23:11:04.746Z,7.90
2023-02-18T23:17:17.995Z,8.00
2023-02-18T23:20:07.418Z,8.00
2023-02-18T23:23:02.273Z,8.00
2023-02-18T23:25:50.913Z,8.00
2023-02-18T23:32:03.371Z,8.00
2023-02-18T23:38:02.137Z,8.00
2023-02-18T23:40:50.938Z,8.00
2023-02-18T23:43:34.974Z,8.00
2023-02-18T23:46:25.750Z,8.00
2023-02-18T23:49:16.540Z,8.00
2023-02-18T23:52:10.468Z,8.00
2023-02-18T23:55:06.909Z,8.00
